sensor_id;sensor_type;location;lat;lon;timestamp;P1;durP1;ratioP1;P2;durP2;ratioP2
55346;SDS011;41218;55.700;38.270;2022-11-20T00:04:30;11.83;;;5.17;;
55346;SDS011;41218;55.700;38.270;2022-11-20T00:09:30;9.80;;;4.03;;
55346;SDS011;41218;55.700;38.270;2022-11-20T00:14:31;15.93;;;4.93;;
55346;SDS011;41218;55.700;38.270;2022-11-20T00:19:31;11.83;;;4.97;;
55346;SDS011;41218;55.700;38.270;2022-11-20T00:24:32;10.70;;;4.87;;
55346;SDS011;41218;55.700;38.270;2022-11-20T00:29:32;12.67;;;4.87;;
55346;SDS011;41218;55.700;38.270;2022-11-20T00:34:33;13.57;;;4.73;;
55346;SDS011;41218;55.700;38.270;2022-11-20T00:39:33;7.83;;;4.17;;
55346;SDS011;41218;55.700;38.270;2022-11-20T00:44:34;13.57;;;5.63;;
55346;SDS011;41218;55.700;38.270;2022-11-20T00:49:34;9.53;;;3.20;;
55346;SDS011;41218;55.700;38.270;2022-11-20T00:54:35;10.17;;;4.50;;
55346;SDS011;41218;55.700;38.270;2022-11-20T00:59:35;17.30;;;5.30;;
55346;SDS011;41218;55.700;38.270;2022-11-20T01:04:36;10.53;;;4.37;;
55346;SDS011;41218;55.700;38.270;2022-11-20T01:09:36;12.17;;;4.30;;
55346;SDS011;41218;55.700;38.270;2022-11-20T01:14:37;8.73;;;4.00;;
55346;SDS011;41218;55.700;38.270;2022-11-20T01:19:37;11.70;;;4.37;;
55346;SDS011;41218;55.700;38.270;2022-11-20T01:24:38;9.57;;;3.63;;
55346;SDS011;41218;55.700;38.270;2022-11-20T01:29:38;7.67;;;3.83;;
55346;SDS011;41218;55.700;38.270;2022-11-20T01:34:39;9.23;;;3.80;;
55346;SDS011;41218;55.700;38.270;2022-11-20T01:39:39;10.30;;;3.90;;
55346;SDS011;41218;55.700;38.270;2022-11-20T01:44:51;12.00;;;4.47;;
55346;SDS011;41218;55.700;38.270;2022-11-20T01:50:00;8.77;;;3.75;;
55346;SDS011;41218;55.700;38.270;2022-11-20T01:55:08;10.63;;;4.70;;
55346;SDS011;41218;55.700;38.270;2022-11-20T02:00:13;8.63;;;3.70;;
55346;SDS011;41218;55.700;38.270;2022-11-20T02:05:24;10.48;;;4.68;;
55346;SDS011;41218;55.700;38.270;2022-11-20T02:10:30;11.38;;;4.75;;
55346;SDS011;41218;55.700;38.270;2022-11-20T02:15:32;9.60;;;4.45;;
55346;SDS011;41218;55.700;38.270;2022-11-20T02:20:33;12.13;;;3.65;;
55346;SDS011;41218;55.700;38.270;2022-11-20T02:25:34;8.13;;;3.10;;
55346;SDS011;41218;55.700;38.270;2022-11-20T02:30:36;11.18;;;3.65;;
55346;SDS011;41218;55.700;38.270;2022-11-20T02:35:39;10.00;;;3.93;;
55346;SDS011;41218;55.700;38.270;2022-11-20T02:40:41;6.88;;;2.65;;
55346;SDS011;41218;55.700;38.270;2022-11-20T02:45:42;8.18;;;3.40;;
55346;SDS011;41218;55.700;38.270;2022-11-20T02:50:42;11.63;;;4.63;;
55346;SDS011;41218;55.700;38.270;2022-11-20T02:55:43;11.77;;;4.13;;
55346;SDS011;41218;55.700;38.270;2022-11-20T03:00:43;9.70;;;3.93;;
55346;SDS011;41218;55.700;38.270;2022-11-20T03:05:44;10.10;;;4.17;;
55346;SDS011;41218;55.700;38.270;2022-11-20T03:10:44;10.80;;;3.77;;
55346;SDS011;41218;55.700;38.270;2022-11-20T03:15:45;10.40;;;3.77;;
55346;SDS011;41218;55.700;38.270;2022-11-20T03:20:45;9.40;;;3.73;;
55346;SDS011;41218;55.700;38.270;2022-11-20T03:25:46;10.77;;;3.97;;
55346;SDS011;41218;55.700;38.270;2022-11-20T03:30:46;11.37;;;4.13;;
55346;SDS011;41218;55.700;38.270;2022-11-20T03:35:47;11.93;;;4.55;;
55346;SDS011;41218;55.700;38.270;2022-11-20T03:40:48;12.37;;;4.07;;
55346;SDS011;41218;55.700;38.270;2022-11-20T03:45:48;8.03;;;4.20;;
55346;SDS011;41218;55.700;38.270;2022-11-20T03:50:49;9.90;;;4.40;;
55346;SDS011;41218;55.700;38.270;2022-11-20T03:55:50;8.82;;;3.30;;
55346;SDS011;41218;55.700;38.270;2022-11-20T04:05:51;8.57;;;3.73;;
55346;SDS011;41218;55.700;38.270;2022-11-20T04:10:52;10.73;;;3.83;;
55346;SDS011;41218;55.700;38.270;2022-11-20T04:15:56;8.13;;;4.13;;
55346;SDS011;41218;55.700;38.270;2022-11-20T04:20:58;11.38;;;4.25;;
55346;SDS011;41218;55.700;38.270;2022-11-20T04:31:08;9.07;;;4.45;;
55346;SDS011;41218;55.700;38.270;2022-11-20T04:36:20;9.90;;;3.88;;
55346;SDS011;41218;55.700;38.270;2022-11-20T04:41:26;10.77;;;4.10;;
55346;SDS011;41218;55.700;38.270;2022-11-20T04:46:33;13.32;;;4.22;;
55346;SDS011;41218;55.700;38.270;2022-11-20T04:51:37;10.25;;;4.28;;
55346;SDS011;41218;55.700;38.270;2022-11-20T04:56:38;10.87;;;4.63;;
55346;SDS011;41218;55.700;38.270;2022-11-20T05:01:38;12.97;;;4.87;;
55346;SDS011;41218;55.700;38.270;2022-11-20T05:06:39;10.10;;;4.53;;
55346;SDS011;41218;55.700;38.270;2022-11-20T05:11:39;9.40;;;4.37;;
55346;SDS011;41218;55.700;38.270;2022-11-20T05:16:40;11.68;;;4.55;;
55346;SDS011;41218;55.700;38.270;2022-11-20T05:21:41;10.48;;;4.50;;
55346;SDS011;41218;55.700;38.270;2022-11-20T05:26:42;12.57;;;4.80;;
55346;SDS011;41218;55.700;38.270;2022-11-20T05:31:42;8.93;;;3.73;;
55346;SDS011;41218;55.700;38.270;2022-11-20T05:36:43;10.20;;;4.33;;
55346;SDS011;41218;55.700;38.270;2022-11-20T05:41:43;10.13;;;4.23;;
55346;SDS011;41218;55.700;38.270;2022-11-20T05:46:44;10.63;;;4.43;;
55346;SDS011;41218;55.700;38.270;2022-11-20T05:51:44;10.50;;;4.50;;
55346;SDS011;41218;55.700;38.270;2022-11-20T05:56:45;12.27;;;4.50;;
55346;SDS011;41218;55.700;38.270;2022-11-20T06:01:45;11.67;;;4.30;;
55346;SDS011;41218;55.700;38.270;2022-11-20T06:06:46;11.50;;;4.97;;
55346;SDS011;41218;55.700;38.270;2022-11-20T06:11:46;14.03;;;5.20;;
55346;SDS011;41218;55.700;38.270;2022-11-20T06:16:47;11.80;;;4.27;;
55346;SDS011;41218;55.700;38.270;2022-11-20T06:21:48;14.90;;;4.90;;
55346;SDS011;41218;55.700;38.270;2022-11-20T06:26:49;11.57;;;4.63;;
55346;SDS011;41218;55.700;38.270;2022-11-20T06:31:49;14.07;;;5.00;;
55346;SDS011;41218;55.700;38.270;2022-11-20T06:36:50;11.70;;;4.83;;
55346;SDS011;41218;55.700;38.270;2022-11-20T06:41:50;12.13;;;4.43;;
55346;SDS011;41218;55.700;38.270;2022-11-20T06:46:51;12.97;;;4.00;;
55346;SDS011;41218;55.700;38.270;2022-11-20T06:51:51;11.00;;;4.63;;
55346;SDS011;41218;55.700;38.270;2022-11-20T06:56:52;10.00;;;4.20;;
55346;SDS011;41218;55.700;38.270;2022-11-20T07:01:53;8.67;;;4.00;;
55346;SDS011;41218;55.700;38.270;2022-11-20T07:06:53;10.90;;;4.97;;
55346;SDS011;41218;55.700;38.270;2022-11-20T07:11:53;13.30;;;5.60;;
55346;SDS011;41218;55.700;38.270;2022-11-20T07:16:54;12.70;;;4.97;;
55346;SDS011;41218;55.700;38.270;2022-11-20T07:21:55;11.88;;;5.57;;
55346;SDS011;41218;55.700;38.270;2022-11-20T07:26:55;12.33;;;4.77;;
55346;SDS011;41218;55.700;38.270;2022-11-20T07:31:56;13.90;;;5.50;;
55346;SDS011;41218;55.700;38.270;2022-11-20T07:36:56;17.77;;;6.37;;
55346;SDS011;41218;55.700;38.270;2022-11-20T07:41:57;15.33;;;5.27;;
55346;SDS011;41218;55.700;38.270;2022-11-20T07:46:57;14.67;;;5.60;;
55346;SDS011;41218;55.700;38.270;2022-11-20T07:51:58;13.90;;;4.97;;
55346;SDS011;41218;55.700;38.270;2022-11-20T07:56:58;13.93;;;5.43;;
55346;SDS011;41218;55.700;38.270;2022-11-20T08:01:59;13.53;;;4.73;;
55346;SDS011;41218;55.700;38.270;2022-11-20T08:06:59;12.03;;;5.13;;
55346;SDS011;41218;55.700;38.270;2022-11-20T08:12:00;17.93;;;6.17;;
55346;SDS011;41218;55.700;38.270;2022-11-20T08:17:19;15.80;;;5.97;;
55346;SDS011;41218;55.700;38.270;2022-11-20T08:22:20;13.50;;;5.73;;
55346;SDS011;41218;55.700;38.270;2022-11-20T08:27:20;15.57;;;5.47;;
55346;SDS011;41218;55.700;38.270;2022-11-20T08:32:21;16.50;;;5.03;;
55346;SDS011;41218;55.700;38.270;2022-11-20T08:37:21;18.53;;;5.77;;
55346;SDS011;41218;55.700;38.270;2022-11-20T08:42:22;14.60;;;5.83;;
55346;SDS011;41218;55.700;38.270;2022-11-20T08:47:22;21.63;;;6.57;;
55346;SDS011;41218;55.700;38.270;2022-11-20T08:52:23;10.60;;;4.90;;
55346;SDS011;41218;55.700;38.270;2022-11-20T08:57:23;16.57;;;5.67;;
55346;SDS011;41218;55.700;38.270;2022-11-20T09:02:24;14.37;;;6.20;;
55346;SDS011;41218;55.700;38.270;2022-11-20T09:07:25;13.35;;;5.72;;
55346;SDS011;41218;55.700;38.270;2022-11-20T09:12:25;14.40;;;5.70;;
55346;SDS011;41218;55.700;38.270;2022-11-20T09:17:26;16.00;;;6.07;;
55346;SDS011;41218;55.700;38.270;2022-11-20T09:22:26;12.03;;;4.97;;
55346;SDS011;41218;55.700;38.270;2022-11-20T09:27:27;13.27;;;6.13;;
55346;SDS011;41218;55.700;38.270;2022-11-20T09:32:28;18.33;;;5.70;;
55346;SDS011;41218;55.700;38.270;2022-11-20T09:37:28;15.37;;;6.00;;
55346;SDS011;41218;55.700;38.270;2022-11-20T09:42:45;16.37;;;6.40;;
55346;SDS011;41218;55.700;38.270;2022-11-20T09:58:38;17.25;;;6.40;;
55346;SDS011;41218;55.700;38.270;2022-11-20T10:03:49;17.05;;;7.43;;
55346;SDS011;41218;55.700;38.270;2022-11-20T10:19:23;17.80;;;6.45;;
55346;SDS011;41218;55.700;38.270;2022-11-20T10:24:38;19.90;;;6.45;;
55346;SDS011;41218;55.700;38.270;2022-11-20T10:29:42;21.43;;;7.60;;
55346;SDS011;41218;55.700;38.270;2022-11-20T10:45:17;18.98;;;6.43;;
55346;SDS011;41218;55.700;38.270;2022-11-20T10:50:31;21.42;;;7.93;;
55346;SDS011;41218;55.700;38.270;2022-11-20T11:00:44;21.65;;;8.30;;
55346;SDS011;41218;55.700;38.270;2022-11-20T11:05:49;19.87;;;8.43;;
55346;SDS011;41218;55.700;38.270;2022-11-20T11:10:55;18.95;;;7.07;;
55346;SDS011;41218;55.700;38.270;2022-11-20T11:15:59;18.08;;;7.88;;
55346;SDS011;41218;55.700;38.270;2022-11-20T11:21:00;24.27;;;6.80;;
55346;SDS011;41218;55.700;38.270;2022-11-20T11:26:04;23.05;;;8.18;;
55346;SDS011;41218;55.700;38.270;2022-11-20T11:31:06;32.28;;;8.07;;
55346;SDS011;41218;55.700;38.270;2022-11-20T11:36:16;26.17;;;8.47;;
55346;SDS011;41218;55.700;38.270;2022-11-20T11:41:22;28.38;;;8.63;;
55346;SDS011;41218;55.700;38.270;2022-11-20T11:46:30;23.00;;;7.88;;
55346;SDS011;41218;55.700;38.270;2022-11-20T11:51:40;24.67;;;7.78;;
55346;SDS011;41218;55.700;38.270;2022-11-20T11:56:47;23.55;;;7.53;;
55346;SDS011;41218;55.700;38.270;2022-11-20T12:01:50;22.43;;;7.90;;
55346;SDS011;41218;55.700;38.270;2022-11-20T12:07:03;22.17;;;8.43;;
55346;SDS011;41218;55.700;38.270;2022-11-20T12:12:35;19.55;;;7.10;;
55346;SDS011;41218;55.700;38.270;2022-11-20T12:17:41;29.10;;;9.07;;
55346;SDS011;41218;55.700;38.270;2022-11-20T12:22:44;25.10;;;7.87;;
55346;SDS011;41218;55.700;38.270;2022-11-20T12:44:03;29.65;;;9.32;;
55346;SDS011;41218;55.700;38.270;2022-11-20T12:49:28;26.15;;;8.85;;
55346;SDS011;41218;55.700;38.270;2022-11-20T13:16:02;26.58;;;9.02;;
55346;SDS011;41218;55.700;38.270;2022-11-20T13:21:22;32.60;;;10.48;;
55346;SDS011;41218;55.700;38.270;2022-11-20T13:26:35;28.10;;;10.60;;
55346;SDS011;41218;55.700;38.270;2022-11-20T13:31:36;31.57;;;10.53;;
55346;SDS011;41218;55.700;38.270;2022-11-20T13:36:50;28.98;;;10.48;;
55346;SDS011;41218;55.700;38.270;2022-11-20T13:41:58;30.73;;;10.73;;
55346;SDS011;41218;55.700;38.270;2022-11-20T13:47:01;20.98;;;8.40;;
55346;SDS011;41218;55.700;38.270;2022-11-20T13:57:53;29.02;;;10.50;;
55346;SDS011;41218;55.700;38.270;2022-11-20T14:08:05;33.60;;;9.87;;
55346;SDS011;41218;55.700;38.270;2022-11-20T14:13:16;30.23;;;10.77;;
55346;SDS011;41218;55.700;38.270;2022-11-20T14:18:20;26.77;;;10.40;;
55346;SDS011;41218;55.700;38.270;2022-11-20T14:23:25;27.50;;;10.40;;
55346;SDS011;41218;55.700;38.270;2022-11-20T14:28:28;25.17;;;9.45;;
55346;SDS011;41218;55.700;38.270;2022-11-20T14:33:37;32.80;;;9.80;;
55346;SDS011;41218;55.700;38.270;2022-11-20T14:38:38;30.08;;;9.45;;
55346;SDS011;41218;55.700;38.270;2022-11-20T14:43:40;29.65;;;10.20;;
55346;SDS011;41218;55.700;38.270;2022-11-20T14:48:46;26.02;;;9.15;;
55346;SDS011;41218;55.700;38.270;2022-11-20T14:53:50;31.65;;;10.10;;
55346;SDS011;41218;55.700;38.270;2022-11-20T14:58:57;28.95;;;9.93;;
55346;SDS011;41218;55.700;38.270;2022-11-20T15:04:09;29.17;;;10.32;;
55346;SDS011;41218;55.700;38.270;2022-11-20T15:09:14;37.67;;;11.43;;
55346;SDS011;41218;55.700;38.270;2022-11-20T15:14:15;34.78;;;10.65;;
55346;SDS011;41218;55.700;38.270;2022-11-20T15:19:25;37.30;;;11.13;;
55346;SDS011;41218;55.700;38.270;2022-11-20T15:24:26;35.88;;;11.52;;
55346;SDS011;41218;55.700;38.270;2022-11-20T15:29:27;46.53;;;11.67;;
55346;SDS011;41218;55.700;38.270;2022-11-20T15:34:28;34.15;;;10.38;;
55346;SDS011;41218;55.700;38.270;2022-11-20T15:39:28;35.57;;;10.47;;
55346;SDS011;41218;55.700;38.270;2022-11-20T15:44:29;34.53;;;11.13;;
55346;SDS011;41218;55.700;38.270;2022-11-20T15:49:29;38.53;;;12.60;;
55346;SDS011;41218;55.700;38.270;2022-11-20T15:54:30;29.63;;;10.17;;
55346;SDS011;41218;55.700;38.270;2022-11-20T15:59:30;36.63;;;11.13;;
55346;SDS011;41218;55.700;38.270;2022-11-20T16:04:31;36.97;;;11.17;;
55346;SDS011;41218;55.700;38.270;2022-11-20T16:09:31;31.80;;;10.33;;
55346;SDS011;41218;55.700;38.270;2022-11-20T16:14:32;31.65;;;10.88;;
55346;SDS011;41218;55.700;38.270;2022-11-20T16:19:51;42.63;;;12.43;;
55346;SDS011;41218;55.700;38.270;2022-11-20T16:24:52;34.17;;;11.23;;
55346;SDS011;41218;55.700;38.270;2022-11-20T16:29:52;38.50;;;10.80;;
55346;SDS011;41218;55.700;38.270;2022-11-20T16:34:53;38.03;;;10.83;;
55346;SDS011;41218;55.700;38.270;2022-11-20T16:39:53;29.83;;;9.93;;
55346;SDS011;41218;55.700;38.270;2022-11-20T16:44:56;43.47;;;10.63;;
55346;SDS011;41218;55.700;38.270;2022-11-20T16:49:57;41.95;;;11.77;;
55346;SDS011;41218;55.700;38.270;2022-11-20T16:54:58;39.50;;;11.18;;
55346;SDS011;41218;55.700;38.270;2022-11-20T16:59:58;42.08;;;12.63;;
55346;SDS011;41218;55.700;38.270;2022-11-20T17:10:00;36.20;;;11.73;;
55346;SDS011;41218;55.700;38.270;2022-11-20T17:15:01;30.58;;;11.20;;
55346;SDS011;41218;55.700;38.270;2022-11-20T17:20:01;33.13;;;11.23;;
55346;SDS011;41218;55.700;38.270;2022-11-20T17:25:03;35.03;;;12.43;;
55346;SDS011;41218;55.700;38.270;2022-11-20T17:30:04;32.88;;;11.68;;
55346;SDS011;41218;55.700;38.270;2022-11-20T17:35:05;41.05;;;12.65;;
55346;SDS011;41218;55.700;38.270;2022-11-20T17:40:06;38.40;;;11.70;;
55346;SDS011;41218;55.700;38.270;2022-11-20T17:45:07;33.88;;;11.10;;
55346;SDS011;41218;55.700;38.270;2022-11-20T17:50:08;41.05;;;12.38;;
55346;SDS011;41218;55.700;38.270;2022-11-20T17:55:09;40.90;;;12.38;;
55346;SDS011;41218;55.700;38.270;2022-11-20T18:00:10;39.35;;;12.65;;
55346;SDS011;41218;55.700;38.270;2022-11-20T18:05:12;37.33;;;12.13;;
55346;SDS011;41218;55.700;38.270;2022-11-20T18:10:13;37.13;;;11.88;;
55346;SDS011;41218;55.700;38.270;2022-11-20T18:15:14;36.38;;;11.88;;
55346;SDS011;41218;55.700;38.270;2022-11-20T18:20:15;35.15;;;10.57;;
55346;SDS011;41218;55.700;38.270;2022-11-20T18:25:16;37.20;;;11.85;;
55346;SDS011;41218;55.700;38.270;2022-11-20T18:30:17;42.42;;;11.93;;
55346;SDS011;41218;55.700;38.270;2022-11-20T18:35:18;32.40;;;11.73;;
55346;SDS011;41218;55.700;38.270;2022-11-20T18:40:18;39.28;;;13.02;;
55346;SDS011;41218;55.700;38.270;2022-11-20T18:45:19;39.65;;;11.63;;
55346;SDS011;41218;55.700;38.270;2022-11-20T18:50:20;42.78;;;10.88;;
55346;SDS011;41218;55.700;38.270;2022-11-20T18:55:22;32.88;;;10.45;;
55346;SDS011;41218;55.700;38.270;2022-11-20T19:00:25;27.77;;;10.02;;
55346;SDS011;41218;55.700;38.270;2022-11-20T19:05:25;38.83;;;11.37;;
55346;SDS011;41218;55.700;38.270;2022-11-20T19:10:26;31.33;;;10.87;;
55346;SDS011;41218;55.700;38.270;2022-11-20T19:15:27;34.22;;;11.60;;
55346;SDS011;41218;55.700;38.270;2022-11-20T19:20:27;33.73;;;10.60;;
55346;SDS011;41218;55.700;38.270;2022-11-20T19:25:29;33.57;;;10.40;;
55346;SDS011;41218;55.700;38.270;2022-11-20T19:30:31;41.60;;;11.93;;
55346;SDS011;41218;55.700;38.270;2022-11-20T19:35:32;29.20;;;10.18;;
55346;SDS011;41218;55.700;38.270;2022-11-20T19:40:35;32.63;;;10.07;;
55346;SDS011;41218;55.700;38.270;2022-11-20T19:45:36;29.10;;;10.17;;
55346;SDS011;41218;55.700;38.270;2022-11-20T19:50:36;26.83;;;9.63;;
55346;SDS011;41218;55.700;38.270;2022-11-20T19:55:37;28.53;;;9.93;;
55346;SDS011;41218;55.700;38.270;2022-11-20T20:00:37;22.43;;;8.23;;
55346;SDS011;41218;55.700;38.270;2022-11-20T20:05:38;30.57;;;9.73;;
55346;SDS011;41218;55.700;38.270;2022-11-20T20:10:38;21.83;;;8.13;;
55346;SDS011;41218;55.700;38.270;2022-11-20T20:15:39;26.98;;;9.45;;
55346;SDS011;41218;55.700;38.270;2022-11-20T20:20:40;22.20;;;9.23;;
55346;SDS011;41218;55.700;38.270;2022-11-20T20:25:40;23.43;;;9.43;;
55346;SDS011;41218;55.700;38.270;2022-11-20T20:30:41;24.20;;;8.00;;
55346;SDS011;41218;55.700;38.270;2022-11-20T20:35:42;28.90;;;9.13;;
55346;SDS011;41218;55.700;38.270;2022-11-20T20:40:46;33.70;;;10.47;;
55346;SDS011;41218;55.700;38.270;2022-11-20T20:45:49;27.63;;;8.95;;
55346;SDS011;41218;55.700;38.270;2022-11-20T20:55:54;21.38;;;7.30;;
55346;SDS011;41218;55.700;38.270;2022-11-20T21:01:09;22.58;;;8.57;;
55346;SDS011;41218;55.700;38.270;2022-11-20T21:06:11;25.27;;;8.07;;
55346;SDS011;41218;55.700;38.270;2022-11-20T21:16:15;24.92;;;8.07;;
55346;SDS011;41218;55.700;38.270;2022-11-20T21:21:17;29.83;;;8.70;;
55346;SDS011;41218;55.700;38.270;2022-11-20T21:26:36;24.10;;;7.75;;
55346;SDS011;41218;55.700;38.270;2022-11-20T21:31:37;21.60;;;7.73;;
55346;SDS011;41218;55.700;38.270;2022-11-20T21:36:37;25.30;;;8.35;;
55346;SDS011;41218;55.700;38.270;2022-11-20T21:41:38;25.80;;;8.17;;
55346;SDS011;41218;55.700;38.270;2022-11-20T21:46:40;22.90;;;7.40;;
55346;SDS011;41218;55.700;38.270;2022-11-20T21:51:43;28.42;;;8.88;;
55346;SDS011;41218;55.700;38.270;2022-11-20T21:56:43;31.13;;;9.13;;
55346;SDS011;41218;55.700;38.270;2022-11-20T22:01:44;23.53;;;8.23;;
55346;SDS011;41218;55.700;38.270;2022-11-20T22:06:44;19.60;;;7.20;;
55346;SDS011;41218;55.700;38.270;2022-11-20T22:11:45;21.13;;;8.03;;
55346;SDS011;41218;55.700;38.270;2022-11-20T22:16:45;20.93;;;8.33;;
55346;SDS011;41218;55.700;38.270;2022-11-20T22:21:47;27.25;;;8.15;;
55346;SDS011;41218;55.700;38.270;2022-11-20T22:26:49;24.17;;;7.30;;
55346;SDS011;41218;55.700;38.270;2022-11-20T22:31:50;20.58;;;7.40;;
55346;SDS011;41218;55.700;38.270;2022-11-20T22:41:52;22.03;;;7.63;;
55346;SDS011;41218;55.700;38.270;2022-11-20T22:46:52;26.73;;;8.73;;
55346;SDS011;41218;55.700;38.270;2022-11-20T22:51:53;24.27;;;7.93;;
55346;SDS011;41218;55.700;38.270;2022-11-20T22:56:53;23.33;;;9.13;;
55346;SDS011;41218;55.700;38.270;2022-11-20T23:01:54;26.80;;;7.53;;
55346;SDS011;41218;55.700;38.270;2022-11-20T23:06:54;23.07;;;8.27;;
55346;SDS011;41218;55.700;38.270;2022-11-20T23:11:55;30.60;;;8.67;;
55346;SDS011;41218;55.700;38.270;2022-11-20T23:16:55;22.67;;;7.57;;
55346;SDS011;41218;55.700;38.270;2022-11-20T23:21:56;23.47;;;7.87;;
55346;SDS011;41218;55.700;38.270;2022-11-20T23:26:56;24.87;;;7.60;;
55346;SDS011;41218;55.700;38.270;2022-11-20T23:31:57;26.50;;;8.23;;
55346;SDS011;41218;55.700;38.270;2022-11-20T23:36:57;21.53;;;7.27;;
55346;SDS011;41218;55.700;38.270;2022-11-20T23:42:00;23.88;;;7.80;;
55346;SDS011;41218;55.700;38.270;2022-11-20T23:47:00;30.70;;;8.43;;
55346;SDS011;41218;55.700;38.270;2022-11-20T23:52:01;23.17;;;7.37;;
55346;SDS011;41218;55.700;38.270;2022-11-20T23:57:01;26.45;;;8.43;;
